Weather at C-708 Heliport

Public forecast

Using degrees Celsius for public forecast. Weather courtesy of forecast.io.

Closest aviation weather report (METAR) to C-708 Heliport

Closest report is Kunsan Air Base, 3.1 nm (5.8 km) W. Retrieved 2021/10/22 23:56 UTC (16 minutes ago):

RKJK 222356Z 10003KT 10SM CLR 09/06 A3037 RMK AO2A SLP289 T00950062

Closest aviation forecast (TAF) to C-708 Heliport

Closest forecast is Kunsan Air Base, 3.1 nm (5.8 km) W. Retrieved 2021-10-23 00:00 UTC (12 minutes ago):

TAF TAF RKJK 230000Z 2300/2406 09006KT 9000 BR FEW200 QNH3026INS BECMG 2301/2302 34008KT 9999 NSW FEW200 QNH3032INS BECMG 2316/2317 08006KT 9000 BR FEW200 QNH3030INS TEMPO 2320/2324 6000 BR TX18/2306Z TN05/2320Z